Time;durP1;ratioP1;P1;durP2;ratioP2;P2;SDS_P1;SDS_P2;PMS_P1;PMS_P2;Temp;Humidity;BMP_temperature;BMP_pressure;BME280_temperature;BME280_humidity;BME280_pressure;Samples;Min_cycle;Max_cycle;Signal;HPM_P1;HPM_P2
2022/08/01 00:00:34;;;;;;;6.18;3.45;;;18.70;99.90;;;;;;5114793;28;20035;-71
2022/08/01 00:03:05;;;;;;;8.07;3.63;;;18.80;99.90;;;;;;5099760;28;20051;-71
2022/08/01 00:05:37;;;;;;;6.57;3.70;;;18.80;99.90;;;;;;5093224;28;20453;-71
2022/08/01 00:08:09;;;;;;;5.88;3.33;;;18.80;99.90;;;;;;5094796;28;20466;-71
2022/08/01 00:10:37;;;;;;;6.63;3.83;;;19.00;99.90;;;;;;5092824;28;20124;-71
2022/08/01 00:13:03;;;;;;;6.82;3.70;;;18.80;99.90;;;;;;5094060;28;20044;-71
2022/08/01 00:15:29;;;;;;;5.45;3.90;;;18.70;99.90;;;;;;5093820;28;20044;-71
2022/08/01 00:17:54;;;;;;;5.65;3.78;;;18.80;99.90;;;;;;5109556;28;20047;-71
2022/08/01 00:20:20;;;;;;;8.98;4.13;;;19.20;99.90;;;;;;5092666;28;20052;-71
2022/08/01 00:22:45;;;;;;;5.97;3.58;;;18.80;99.90;;;;;;5093855;28;20131;-71
2022/08/01 00:25:11;;;;;;;5.57;3.30;;;18.80;99.90;;;;;;5093692;28;20044;-70
2022/08/01 00:27:36;;;;;;;6.65;3.42;;;18.70;99.90;;;;;;5093181;28;20075;-70
2022/08/01 00:30:03;;;;;;;4.70;3.78;;;18.70;99.90;;;;;;5092317;28;20155;-71
2022/08/01 00:32:31;;;;;;;6.05;3.85;;;18.70;99.90;;;;;;5093437;28;20048;-71
2022/08/01 00:34:56;;;;;;;6.35;3.97;;;18.70;99.90;;;;;;5093456;28;20040;-70
2022/08/01 00:37:22;;;;;;;7.55;3.83;;;18.70;99.90;;;;;;5093526;28;20040;-71
2022/08/01 00:39:47;;;;;;;9.38;4.30;;;18.80;99.90;;;;;;5093669;28;20476;-71
2022/08/01 00:42:13;;;;;;;5.63;4.35;;;18.70;99.90;;;;;;5093321;28;20036;-71
2022/08/01 00:44:39;;;;;;;9.80;4.28;;;18.70;99.90;;;;;;5093227;28;20081;-71
2022/08/01 00:47:05;;;;;;;7.72;4.22;;;18.70;99.90;;;;;;5091311;28;20032;-71
2022/08/01 00:49:31;;;;;;;5.68;3.65;;;18.70;99.90;;;;;;5093137;28;20086;-71
2022/08/01 00:51:58;;;;;;;6.75;4.38;;;18.70;99.90;;;;;;5093388;28;20070;-71
2022/08/01 00:54:25;;;;;;;6.38;4.22;;;18.70;99.90;;;;;;5093064;28;20105;-71
2022/08/01 00:56:51;;;;;;;7.80;4.00;;;18.80;99.90;;;;;;5092025;28;20468;-71
2022/08/01 00:59:21;;;;;;;9.93;4.30;;;18.60;99.90;;;;;;5093293;28;20071;-71
2022/08/01 01:01:47;;;;;;;7.40;3.42;;;18.70;99.90;;;;;;5093141;28;20129;-71
2022/08/01 01:04:13;;;;;;;5.60;3.45;;;18.80;99.90;;;;;;5090315;28;20135;-71
2022/08/01 01:07:11;;;;;;;6.95;3.30;;;18.60;99.90;;;;;;5093116;28;20044;-71
2022/08/01 01:09:45;;;;;;;7.85;3.33;;;18.60;99.90;;;;;;5093328;28;20044;-71
2022/08/01 01:12:40;;;;;;;7.80;3.13;;;18.60;99.90;;;;;;5091590;28;20093;-71
2022/08/01 01:15:10;;;;;;;6.88;3.10;;;18.60;99.90;;;;;;5093052;28;20109;-71
2022/08/01 01:17:41;;;;;;;5.88;2.83;;;18.60;99.90;;;;;;5091400;28;20043;-71
2022/08/01 01:20:11;;;;;;;6.10;2.92;;;18.60;99.90;;;;;;5093277;28;20469;-71
2022/08/01 01:22:46;;;;;;;5.55;2.63;;;18.60;99.90;;;;;;5092634;28;20079;-71
2022/08/01 01:25:28;;;;;;;5.35;2.90;;;18.60;99.90;;;;;;5092702;28;20059;-71
2022/08/01 01:28:26;;;;;;;5.53;2.47;;;18.60;99.90;;;;;;5092937;28;20044;-71
2022/08/01 01:30:55;;;;;;;8.55;2.67;;;18.60;99.90;;;;;;5092618;28;20102;-70
2022/08/01 01:33:23;;;;;;;5.75;2.50;;;18.50;99.90;;;;;;5091280;28;20056;-71
2022/08/01 01:35:56;;;;;;;5.28;2.60;;;18.50;99.90;;;;;;5089753;28;20071;-71
2022/08/01 01:38:27;;;;;;;7.53;3.17;;;18.50;99.90;;;;;;5097691;28;20040;-71
2022/08/01 01:40:55;;;;;;;4.82;2.65;;;18.50;99.90;;;;;;5099450;28;20120;-71
2022/08/01 01:43:22;;;;;;;5.93;2.75;;;18.50;99.90;;;;;;5099305;28;20458;-71
2022/08/01 01:45:50;;;;;;;5.47;2.55;;;18.50;99.90;;;;;;5099357;28;20093;-71
2022/08/01 01:48:19;;;;;;;6.22;2.80;;;18.10;99.90;;;;;;5099177;28;20040;-71
2022/08/01 01:50:47;;;;;;;6.60;2.70;;;18.50;99.90;;;;;;5099520;28;20032;-71
2022/08/01 01:53:17;;;;;;;8.30;2.65;;;18.50;99.90;;;;;;5099362;28;20044;-71
2022/08/01 01:55:46;;;;;;;12.18;2.80;;;18.40;99.90;;;;;;5099223;28;20040;-71
2022/08/01 01:58:14;;;;;;;8.63;3.15;;;18.40;99.90;;;;;;5099278;28;20048;-70
2022/08/01 02:00:42;;;;;;;8.10;3.03;;;18.40;99.90;;;;;;5099255;28;20405;-71
2022/08/01 02:03:10;;;;;;;10.77;2.83;;;18.40;99.90;;;;;;5097587;28;20040;-71
2022/08/01 02:05:37;;;;;;;8.30;2.50;;;18.40;99.90;;;;;;5099115;28;20063;-71
2022/08/01 02:08:05;;;;;;;8.05;2.70;;;18.40;99.90;;;;;;5097906;28;20373;-70
2022/08/01 02:10:32;;;;;;;6.60;2.60;;;18.30;99.90;;;;;;5099102;28;20459;-71
2022/08/01 02:13:00;;;;;;;7.60;2.40;;;18.30;99.90;;;;;;5131384;27;20195;-71
2022/08/01 02:18:28;;;;;;;6.15;2.20;;;18.30;99.90;;;;;;5093924;28;20052;-71
2022/08/01 02:20:55;;;;;;;6.68;2.10;;;18.30;99.90;;;;;;5097374;28;20082;-71
2022/08/01 02:23:23;;;;;;;7.63;2.15;;;18.30;99.90;;;;;;5099311;28;20036;-70
2022/08/01 02:26:02;;;;;;;6.68;2.28;;;18.30;99.90;;;;;;5099024;28;20403;-71
2022/08/01 02:28:36;;;;;;;4.55;1.92;;;18.30;99.90;;;;;;5098047;28;20074;-71
2022/08/01 02:31:14;;;;;;;8.50;2.30;;;18.30;99.90;;;;;;5096968;28;20048;-71
2022/08/01 02:33:44;;;;;;;7.78;2.20;;;18.30;99.90;;;;;;5095303;28;20155;-71
2022/08/01 02:36:12;;;;;;;9.77;2.63;;;18.20;99.90;;;;;;5112346;28;20044;-71
2022/08/01 02:38:41;;;;;;;7.53;2.70;;;18.20;99.90;;;;;;5097054;28;20044;-71
2022/08/01 02:41:13;;;;;;;10.95;2.85;;;18.20;99.90;;;;;;5098819;28;20134;-71
2022/08/01 02:43:45;;;;;;;12.73;3.50;;;18.20;99.90;;;;;;5098764;28;20043;-70
2022/08/01 02:46:17;;;;;;;15.07;3.35;;;18.20;99.90;;;;;;5098754;28;20040;-70
2022/08/01 02:48:44;;;;;;;11.32;3.13;;;18.20;99.90;;;;;;5097231;28;20063;-71
2022/08/01 02:51:11;;;;;;;12.68;2.85;;;18.30;99.90;;;;;;5093994;28;20063;-71
2022/08/01 02:53:40;;;;;;;11.43;3.58;;;18.20;99.90;;;;;;5094081;28;20408;-70
2022/08/01 02:56:08;;;;;;;8.85;3.03;;;18.10;99.90;;;;;;5095385;28;20048;-71
2022/08/01 02:58:36;;;;;;;11.45;3.33;;;18.10;99.90;;;;;;5095288;28;20040;-70
2022/08/01 03:01:03;;;;;;;10.05;3.22;;;18.10;99.90;;;;;;5094309;28;20399;-70
2022/08/01 03:03:30;;;;;;;8.70;3.10;;;18.10;99.90;;;;;;5095104;28;20511;-71
2022/08/01 03:05:57;;;;;;;11.05;3.17;;;18.00;99.90;;;;;;5095110;28;20078;-71
2022/08/01 03:08:24;;;;;;;12.27;3.20;;;18.00;99.90;;;;;;5093571;28;20465;-71
2022/08/01 03:10:51;;;;;;;12.48;3.15;;;18.00;99.90;;;;;;5094119;28;20549;-71
2022/08/01 03:13:18;;;;;;;8.80;2.90;;;17.90;99.90;;;;;;5095174;28;20072;-71
2022/08/01 03:15:45;;;;;;;8.88;3.20;;;17.90;99.90;;;;;;5094883;28;20048;-71
2022/08/01 03:18:13;;;;;;;8.93;3.08;;;17.90;99.90;;;;;;5095000;28;20496;-71
2022/08/01 03:20:40;;;;;;;15.40;3.30;;;17.90;99.90;;;;;;5094870;28;20574;-71
2022/08/01 03:23:17;;;;;;;10.45;3.65;;;17.90;99.90;;;;;;5127727;27;20051;-70
2022/08/01 03:25:50;;;;;;;10.00;3.10;;;17.90;99.90;;;;;;5095072;28;20400;-70
2022/08/01 03:28:27;;;;;;;9.18;3.30;;;17.90;99.90;;;;;;5092356;28;20610;-71
2022/08/01 03:31:00;;;;;;;8.98;3.10;;;17.90;99.90;;;;;;5093137;28;20089;-71
2022/08/01 03:33:31;;;;;;;11.40;3.45;;;17.90;99.90;;;;;;5094535;28;20376;-71
2022/08/01 03:36:07;;;;;;;15.93;3.78;;;18.00;99.90;;;;;;5074526;28;20083;-70
2022/08/01 03:38:39;;;;;;;9.32;3.00;;;17.90;99.90;;;;;;5094908;28;20516;-71
2022/08/01 03:41:21;;;;;;;9.90;3.42;;;18.00;99.90;;;;;;5094127;28;20051;-71
2022/08/01 03:44:02;;;;;;;11.98;3.60;;;17.90;99.90;;;;;;5094359;28;20040;-71
2022/08/01 03:46:47;;;;;;;11.20;3.40;;;17.90;99.90;;;;;;5094172;28;20065;-71
2022/08/01 03:49:23;;;;;;;11.57;3.10;;;18.00;99.90;;;;;;5093282;28;20040;-71
2022/08/01 03:51:50;;;;;;;8.00;2.80;;;18.00;99.90;;;;;;5093899;28;20164;-71
2022/08/01 03:54:20;;;;;;;9.10;3.10;;;18.00;99.90;;;;;;5093568;28;20036;-71
2022/08/01 03:56:48;;;;;;;14.02;3.60;;;17.90;99.90;;;;;;5092932;28;20047;-70
2022/08/01 03:59:16;;;;;;;9.40;3.17;;;18.00;99.90;;;;;;5094330;28;20051;-70
2022/08/01 04:01:44;;;;;;;12.07;3.28;;;18.00;99.90;;;;;;5095373;28;20051;-71
2022/08/01 04:04:10;;;;;;;8.38;3.20;;;18.00;99.90;;;;;;5114463;28;20039;-70
2022/08/01 04:06:40;;;;;;;8.50;3.35;;;17.90;99.90;;;;;;5114350;28;20096;-71
2022/08/01 04:09:09;;;;;;;8.75;2.80;;;18.00;99.90;;;;;;5114397;28;20070;-70
2022/08/01 04:11:34;;;;;;;12.05;2.92;;;17.90;99.90;;;;;;5112959;28;20121;-71
2022/08/01 04:14:00;;;;;;;11.65;2.80;;;17.90;99.90;;;;;;5105554;28;20047;-71
2022/08/01 04:16:26;;;;;;;13.00;3.20;;;17.90;99.90;;;;;;5092495;28;20052;-71
2022/08/01 04:18:51;;;;;;;11.13;3.08;;;17.90;99.90;;;;;;5093961;28;20046;-70
2022/08/01 04:21:30;;;;;;;10.02;2.97;;;17.90;99.90;;;;;;5093786;28;20063;-71
2022/08/01 04:24:01;;;;;;;11.02;3.00;;;17.90;99.90;;;;;;5093836;28;20047;-70
2022/08/01 04:26:28;;;;;;;11.63;3.05;;;17.90;99.90;;;;;;5093847;28;20094;-71
2022/08/01 04:28:55;;;;;;;11.75;2.90;;;17.90;99.90;;;;;;5093847;28;20047;-71
2022/08/01 04:31:22;;;;;;;15.00;3.22;;;17.90;99.90;;;;;;5093241;28;20078;-71
2022/08/01 04:33:50;;;;;;;8.45;3.28;;;18.00;99.90;;;;;;5093546;28;20054;-71
2022/08/01 04:36:19;;;;;;;12.15;3.30;;;18.00;99.90;;;;;;5093393;28;20050;-71
2022/08/01 04:38:50;;;;;;;10.13;2.97;;;18.00;99.90;;;;;;5093287;28;20097;-71
2022/08/01 04:41:17;;;;;;;12.18;3.17;;;18.00;99.90;;;;;;5092561;28;20044;-71
2022/08/01 04:43:43;;;;;;;12.73;3.08;;;17.90;99.90;;;;;;5093305;28;20373;-70
2022/08/01 04:46:09;;;;;;;9.32;2.90;;;17.90;99.90;;;;;;5092097;28;20036;-71
2022/08/01 04:48:37;;;;;;;11.25;2.85;;;17.90;99.90;;;;;;5091134;28;20046;-70
2022/08/01 04:51:03;;;;;;;14.02;3.30;;;17.90;99.90;;;;;;5093270;28;20422;-71
2022/08/01 04:53:32;;;;;;;9.07;2.97;;;17.90;99.90;;;;;;5093173;28;20036;-71
2022/08/01 04:55:57;;;;;;;12.75;3.08;;;17.90;99.90;;;;;;5093255;28;20051;-71
2022/08/01 04:58:23;;;;;;;10.88;3.30;;;17.90;99.90;;;;;;5092096;28;20032;-71
2022/08/01 05:00:49;;;;;;;13.55;3.17;;;17.90;99.90;;;;;;5093150;28;20147;-71
2022/08/01 05:03:15;;;;;;;13.15;3.38;;;17.80;99.90;;;;;;5075008;28;20054;-71
2022/08/01 05:05:40;;;;;;;14.65;3.28;;;18.00;99.90;;;;;;5093384;28;20066;-71
2022/08/01 05:08:06;;;;;;;12.30;3.00;;;17.90;99.90;;;;;;5093121;28;20104;-71
2022/08/01 05:10:32;;;;;;;13.98;3.03;;;17.90;99.90;;;;;;5093242;28;20135;-71
2022/08/01 05:12:58;;;;;;;10.68;2.85;;;17.90;99.90;;;;;;5092675;28;20089;-71
2022/08/01 05:15:23;;;;;;;11.70;3.40;;;17.90;99.90;;;;;;5092758;28;20045;-71
2022/08/01 05:17:49;;;;;;;9.77;2.70;;;17.90;99.90;;;;;;5125540;27;20125;-71
2022/08/01 05:20:15;;;;;;;18.73;3.80;;;17.90;99.90;;;;;;5092672;28;20055;-71
2022/08/01 05:22:40;;;;;;;14.60;3.63;;;17.90;99.90;;;;;;5092685;28;20052;-71
2022/08/01 05:25:06;;;;;;;18.77;3.47;;;17.90;99.90;;;;;;5092839;28;20040;-71
2022/08/01 05:27:37;;;;;;;14.30;3.58;;;17.90;99.90;;;;;;5090178;28;20047;-71
2022/08/01 05:30:03;;;;;;;16.60;4.03;;;18.00;99.90;;;;;;5090955;28;20492;-71
2022/08/01 05:32:30;;;;;;;16.33;3.58;;;18.00;99.90;;;;;;5090762;28;20055;-71
2022/08/01 05:34:55;;;;;;;11.38;3.03;;;17.90;99.90;;;;;;5090289;28;20048;-71
2022/08/01 05:37:21;;;;;;;16.42;3.25;;;17.90;99.90;;;;;;5091065;28;20500;-71
2022/08/01 05:40:02;;;;;;;19.13;3.72;;;18.00;99.90;;;;;;5092758;28;20047;-71
2022/08/01 05:42:28;;;;;;;20.10;3.53;;;17.70;99.90;;;;;;5092562;28;20086;-70
2022/08/01 05:44:54;;;;;;;14.68;3.33;;;18.20;99.90;;;;;;5092511;28;20048;-71
2022/08/01 05:47:19;;;;;;;15.20;3.08;;;18.00;99.90;;;;;;5092367;28;20044;-71
2022/08/01 05:49:45;;;;;;;20.52;3.63;;;18.10;99.90;;;;;;5092413;28;20044;-71
2022/08/01 05:52:11;;;;;;;20.65;3.47;;;18.00;99.90;;;;;;5092285;28;20130;-71
2022/08/01 05:54:37;;;;;;;17.88;3.38;;;18.00;99.90;;;;;;5092578;28;20462;-70
2022/08/01 05:57:03;;;;;;;20.67;3.78;;;17.90;99.90;;;;;;5124959;28;20155;-71
2022/08/01 05:59:29;;;;;;;13.70;3.42;;;18.00;99.90;;;;;;5092716;28;20058;-70
2022/08/01 06:01:55;;;;;;;18.52;4.13;;;17.90;99.90;;;;;;5092201;28;20389;-71
2022/08/01 06:04:21;;;;;;;21.67;3.75;;;17.90;99.90;;;;;;5124820;28;20127;-71
2022/08/01 06:06:47;;;;;;;14.45;3.40;;;17.90;99.90;;;;;;5092355;28;20082;-71
2022/08/01 06:09:12;;;;;;;17.45;3.53;;;18.00;99.90;;;;;;5092268;28;20468;-70
2022/08/01 06:11:38;;;;;;;13.35;3.00;;;17.90;99.90;;;;;;5092280;28;20044;-71
2022/08/01 06:14:03;;;;;;;15.55;3.53;;;18.10;99.90;;;;;;5090799;28;20046;-71
2022/08/01 06:16:29;;;;;;;17.27;3.60;;;18.00;99.90;;;;;;5092040;28;20052;-71
2022/08/01 06:18:55;;;;;;;16.90;3.42;;;18.00;99.90;;;;;;5092324;28;20400;-71
2022/08/01 06:21:20;;;;;;;17.95;3.63;;;17.90;99.90;;;;;;5091952;28;20048;-71
2022/08/01 06:23:46;;;;;;;15.57;3.25;;;17.90;99.90;;;;;;5092205;28;20036;-71
2022/08/01 06:26:11;;;;;;;23.52;4.57;;;17.90;99.90;;;;;;5095924;28;20119;-71
2022/08/01 06:28:38;;;;;;;20.65;3.97;;;17.90;99.90;;;;;;5095895;28;20101;-71
2022/08/01 06:31:04;;;;;;;19.67;3.28;;;18.00;99.90;;;;;;5095429;28;20127;-71
2022/08/01 06:33:29;;;;;;;15.63;3.20;;;18.00;99.90;;;;;;5095611;28;20051;-71
2022/08/01 06:35:55;;;;;;;19.58;3.28;;;18.00;99.90;;;;;;5093572;28;20036;-71
2022/08/01 06:38:21;;;;;;;14.93;3.30;;;18.00;99.90;;;;;;5093779;28;20161;-71
2022/08/01 06:40:47;;;;;;;15.25;3.38;;;18.00;99.90;;;;;;5094255;28;20093;-71
2022/08/01 06:43:12;;;;;;;15.68;3.35;;;18.00;99.90;;;;;;5095670;28;20435;-71
2022/08/01 06:45:42;;;;;;;15.40;3.28;;;18.00;99.90;;;;;;5094362;28;20536;-71
2022/08/01 06:48:07;;;;;;;15.07;3.45;;;18.00;99.90;;;;;;5095314;28;20036;-71
2022/08/01 06:50:35;;;;;;;11.32;3.20;;;18.00;99.90;;;;;;5095412;28;20062;-72
2022/08/01 06:53:01;;;;;;;14.93;3.22;;;18.10;99.90;;;;;;5093387;28;20055;-72
2022/08/01 06:55:26;;;;;;;13.80;3.17;;;18.10;99.90;;;;;;5095417;28;20044;-72
2022/08/01 06:57:53;;;;;;;16.92;3.20;;;18.10;99.90;;;;;;5095388;28;20060;-72
2022/08/01 07:00:22;;;;;;;16.95;3.08;;;18.30;99.90;;;;;;5093923;28;20044;-71
2022/08/01 07:02:51;;;;;;;11.93;2.83;;;18.20;99.90;;;;;;5095258;28;20051;-71
2022/08/01 07:05:17;;;;;;;13.50;2.80;;;18.30;99.90;;;;;;5095056;28;20162;-72
2022/08/01 07:07:43;;;;;;;15.35;3.00;;;18.40;99.90;;;;;;5094936;28;20130;-72
2022/08/01 07:10:09;;;;;;;12.75;2.90;;;18.50;99.90;;;;;;5094086;28;20066;-71
2022/08/01 07:12:37;;;;;;;12.18;3.03;;;18.60;99.90;;;;;;5094971;28;20040;-71
2022/08/01 07:15:07;;;;;;;16.27;3.25;;;18.60;99.90;;;;;;5094733;28;20507;-72
2022/08/01 07:17:37;;;;;;;11.32;2.67;;;18.70;99.90;;;;;;5095011;28;20044;-71
2022/08/01 07:20:04;;;;;;;13.43;2.58;;;18.80;99.90;;;;;;5076753;28;20032;-72
2022/08/01 07:22:29;;;;;;;16.33;3.20;;;18.90;99.90;;;;;;5094878;28;20115;-71
2022/08/01 07:24:55;;;;;;;12.93;2.60;;;18.90;99.90;;;;;;5095094;28;20076;-72
2022/08/01 07:27:20;;;;;;;15.52;3.08;;;19.00;99.90;;;;;;5093712;28;20063;-72
2022/08/01 07:29:46;;;;;;;9.38;2.85;;;19.00;99.90;;;;;;5094565;28;20044;-72
2022/08/01 07:32:12;;;;;;;12.85;2.75;;;19.00;99.90;;;;;;5094656;28;20052;-71
2022/08/01 07:34:37;;;;;;;15.82;3.53;;;19.10;99.90;;;;;;5094371;28;20082;-71
2022/08/01 07:37:03;;;;;;;11.23;2.60;;;19.30;99.90;;;;;;5094310;28;20040;-72
2022/08/01 07:39:28;;;;;;;14.20;2.85;;;19.30;99.90;;;;;;5115081;28;20040;-72
2022/08/01 07:41:54;;;;;;;10.88;2.58;;;19.50;99.90;;;;;;5102507;28;20046;-72
2022/08/01 07:44:20;;;;;;;13.07;2.72;;;19.50;99.90;;;;;;5093019;28;20071;-72
2022/08/01 07:46:45;;;;;;;16.20;2.97;;;19.60;99.90;;;;;;5094341;28;20397;-72
2022/08/01 07:49:11;;;;;;;11.48;2.50;;;19.70;99.90;;;;;;5094398;28;20051;-72
2022/08/01 07:51:37;;;;;;;15.50;3.25;;;19.70;99.90;;;;;;5094092;28;20520;-72
2022/08/01 07:54:03;;;;;;;14.25;2.60;;;19.80;99.90;;;;;;5094405;28;20059;-72
2022/08/01 07:56:29;;;;;;;10.80;2.50;;;19.80;99.90;;;;;;5094232;28;20040;-72
2022/08/01 07:58:54;;;;;;;11.77;2.40;;;19.90;99.90;;;;;;5094041;28;20040;-72
2022/08/01 08:01:20;;;;;;;11.15;2.70;;;19.90;99.90;;;;;;5093870;28;20086;-72
2022/08/01 08:03:46;;;;;;;15.25;2.60;;;19.80;99.90;;;;;;5093588;28;20075;-71
2022/08/01 08:06:12;;;;;;;8.45;2.30;;;19.80;99.90;;;;;;5092173;28;20062;-72
2022/08/01 08:08:37;;;;;;;13.85;2.63;;;19.90;99.90;;;;;;5093712;28;20044;-70
2022/08/01 08:11:03;;;;;;;13.07;2.88;;;19.80;99.90;;;;;;5092747;28;20052;-71
2022/08/01 08:13:29;;;;;;;11.75;2.45;;;19.80;99.90;;;;;;5092021;28;20051;-71
2022/08/01 08:15:55;;;;;;;11.85;2.20;;;19.70;99.90;;;;;;5093523;28;20385;-71
2022/08/01 08:18:21;;;;;;;12.45;2.80;;;19.70;99.90;;;;;;5093640;28;20051;-71
2022/08/01 08:20:46;;;;;;;11.45;2.53;;;19.60;99.90;;;;;;5093756;28;20492;-71
2022/08/01 08:25:56;;;;;;;11.70;2.80;;;19.70;99.90;;;;;;5093699;28;20085;-71
2022/08/01 08:28:22;;;;;;;9.55;2.25;;;19.60;99.90;;;;;;5093525;28;20075;-71
2022/08/01 08:30:47;;;;;;;9.88;2.40;;;19.60;99.90;;;;;;5093185;28;20055;-71
2022/08/01 08:33:13;;;;;;;9.88;2.40;;;19.60;99.90;;;;;;5091665;28;20461;-71
2022/08/01 08:35:41;;;;;;;9.52;2.15;;;19.60;99.90;;;;;;5093192;28;20055;-71
2022/08/01 08:38:07;;;;;;;11.80;2.47;;;19.80;99.90;;;;;;5092042;28;20472;-71
2022/08/01 08:40:35;;;;;;;8.45;2.30;;;19.90;99.90;;;;;;5093798;28;20043;-71
2022/08/01 08:43:03;;;;;;;8.25;2.10;;;19.90;99.90;;;;;;5093329;28;20039;-71
2022/08/01 08:45:30;;;;;;;11.02;2.40;;;20.00;99.90;;;;;;5091771;28;20143;-71
2022/08/01 08:47:56;;;;;;;11.05;2.50;;;20.10;99.90;;;;;;5091221;28;20106;-71
2022/08/01 08:50:23;;;;;;;8.30;2.10;;;20.30;99.90;;;;;;5093092;28;20036;-71
2022/08/01 08:52:50;;;;;;;9.43;2.20;;;20.30;99.90;;;;;;5091807;28;20128;-71
2022/08/01 08:55:17;;;;;;;8.00;2.22;;;20.50;99.90;;;;;;5091833;28;20036;-71
2022/08/01 08:57:46;;;;;;;8.20;2.28;;;20.70;99.90;;;;;;5093877;28;20040;-78
2022/08/01 09:00:16;;;;;;;8.50;2.10;;;20.80;99.90;;;;;;5092525;28;20040;-78
2022/08/01 09:02:43;;;;;;;14.90;2.72;;;20.90;99.90;;;;;;5092160;28;20048;-72
2022/08/01 09:05:09;;;;;;;11.77;3.08;;;21.00;99.90;;;;;;5093182;28;20079;-73
2022/08/01 09:07:35;;;;;;;12.13;2.42;;;20.70;99.90;;;;;;5092594;28;20055;-73
2022/08/01 09:10:01;;;;;;;13.27;2.28;;;20.70;99.90;;;;;;5092213;28;20044;-73
2022/08/01 09:12:26;;;;;;;14.05;2.13;;;20.90;99.90;;;;;;5089779;28;20078;-74
2022/08/01 09:14:53;;;;;;;9.05;1.90;;;21.10;99.90;;;;;;5090241;28;20040;-73
2022/08/01 09:17:19;;;;;;;14.55;2.25;;;21.20;99.90;;;;;;5092702;28;20064;-73
2022/08/01 09:19:54;;;;;;;7.85;1.98;;;21.30;99.90;;;;;;5092719;28;20118;-74
2022/08/01 09:22:22;;;;;;;9.35;2.10;;;21.30;99.90;;;;;;5092935;28;20373;-75
2022/08/01 09:24:59;;;;;;;8.55;1.95;;;21.40;99.90;;;;;;5091590;28;20392;-75
2022/08/01 09:27:25;;;;;;;10.85;2.05;;;21.50;99.90;;;;;;5091429;28;20059;-76
2022/08/01 09:30:15;;;;;;;12.30;2.15;;;21.70;99.90;;;;;;5092808;28;20056;-76
2022/08/01 09:32:58;;;;;;;10.13;2.45;;;21.70;99.90;;;;;;5092845;28;20404;-76
2022/08/01 09:35:29;;;;;;;11.25;2.30;;;21.80;99.90;;;;;;5092890;28;20051;-76
2022/08/01 09:38:15;;;;;;;13.25;2.22;;;21.90;99.90;;;;;;5090982;28;20089;-75
2022/08/01 09:40:44;;;;;;;11.88;2.50;;;22.00;99.90;;;;;;5074843;28;20555;-76
2022/08/01 09:43:12;;;;;;;11.60;2.20;;;22.10;99.90;;;;;;5074066;28;20052;-76
2022/08/01 09:45:37;;;;;;;7.82;2.10;;;22.30;99.90;;;;;;5091148;28;20449;-76
2022/08/01 09:48:10;;;;;;;10.32;2.22;;;22.50;99.90;;;;;;5092820;28;20040;-76
2022/08/01 09:50:54;;;;;;;7.28;2.03;;;22.60;99.90;;;;;;5091618;28;20140;-75
2022/08/01 09:53:19;;;;;;;7.60;1.80;;;22.80;99.90;;;;;;5091895;28;20040;-76
2022/08/01 09:55:45;;;;;;;10.27;2.03;;;22.90;99.90;;;;;;5091020;28;20070;-76
2022/08/01 09:58:11;;;;;;;12.18;2.30;;;23.10;99.90;;;;;;5092057;28;20448;-76
2022/08/01 10:00:39;;;;;;;8.38;1.88;;;23.10;99.90;;;;;;5095333;28;20044;-76
2022/08/01 10:03:26;;;;;;;10.10;2.35;;;23.10;99.90;;;;;;5096496;28;20055;-77
2022/08/01 10:05:53;;;;;;;9.95;1.98;;;23.40;99.90;;;;;;5096166;28;20447;-76
2022/08/01 10:08:20;;;;;;;7.30;1.80;;;23.80;99.90;;;;;;5096086;28;20109;-76
2022/08/01 10:11:06;;;;;;;9.45;1.98;;;24.60;99.90;;;;;;5128884;27;20052;-75
2022/08/01 10:13:32;;;;;;;7.90;1.83;;;25.70;99.90;;;;;;5096078;28;20126;-75
2022/08/01 10:16:00;;;;;;;7.03;1.80;;;26.20;99.90;;;;;;5096197;28;20040;-75
2022/08/01 10:18:26;;;;;;;7.90;1.80;;;26.10;99.60;;;;;;5096172;28;20059;-75
2022/08/01 10:20:54;;;;;;;9.60;2.42;;;26.60;99.00;;;;;;5078139;28;20076;-75
2022/08/01 10:23:20;;;;;;;8.02;2.05;;;28.50;97.20;;;;;;5096028;28;20055;-75
2022/08/01 10:25:47;;;;;;;7.22;1.95;;;29.80;95.10;;;;;;5094740;28;20036;-75
2022/08/01 10:28:17;;;;;;;8.63;1.80;;;30.20;94.00;;;;;;5096242;28;20051;-76
2022/08/01 10:30:44;;;;;;;9.95;2.17;;;31.20;94.00;;;;;;5095620;28;20570;-76
2022/08/01 10:33:10;;;;;;;6.57;1.80;;;33.40;93.10;;;;;;5094334;28;20044;-74
2022/08/01 10:35:40;;;;;;;5.53;1.48;;;35.00;90.70;;;;;;5111792;28;20058;-75
2022/08/01 10:38:06;;;;;;;10.60;1.80;;;35.50;89.00;;;;;;5116184;28;20036;-75
2022/08/01 10:40:32;;;;;;;8.73;1.85;;;34.70;87.70;;;;;;5114251;28;20143;-74
2022/08/01 10:42:58;;;;;;;7.18;1.83;;;34.10;86.80;;;;;;5097822;28;20039;-75
2022/08/01 10:45:28;;;;;;;11.38;2.00;;;35.10;85.90;;;;;;5115336;28;20043;-76
2022/08/01 10:48:01;;;;;;;6.72;1.80;;;36.50;84.20;;;;;;5113667;28;20061;-76
2022/08/01 10:50:44;;;;;;;5.75;1.70;;;36.40;82.10;;;;;;5094026;28;20431;-77
2022/08/01 10:53:24;;;;;;;6.68;1.90;;;37.00;77.80;;;;;;5094922;28;20101;-76
2022/08/01 10:55:55;;;;;;;7.60;1.92;;;36.60;75.60;;;;;;5094969;28;20087;-76
2022/08/01 10:58:37;;;;;;;7.07;1.60;;;36.40;77.40;;;;;;5095145;28;20459;-76
2022/08/01 11:01:29;;;;;;;6.10;1.95;;;36.60;75.90;;;;;;5095070;28;20048;-77
2022/08/01 11:03:55;;;;;;;6.22;1.48;;;37.30;77.00;;;;;;5095002;28;20051;-77
2022/08/01 11:06:32;;;;;;;6.03;1.60;;;37.90;76.60;;;;;;5094384;28;20080;-78
2022/08/01 11:08:59;;;;;;;5.97;1.63;;;38.30;75.30;;;;;;5094275;28;20059;-77
2022/08/01 11:11:24;;;;;;;7.47;1.90;;;37.70;73.60;;;;;;5092932;28;20054;-77
2022/08/01 11:14:06;;;;;;;6.68;1.77;;;36.10;72.90;;;;;;5094924;28;20404;-77
2022/08/01 11:16:35;;;;;;;5.97;1.77;;;35.20;72.20;;;;;;5093687;28;20063;-77
2022/08/01 11:19:01;;;;;;;7.38;1.73;;;34.70;74.90;;;;;;5093537;28;20040;-77
2022/08/01 11:21:59;;;;;;;6.20;1.60;;;33.80;74.50;;;;;;5093349;28;20052;-78
2022/08/01 11:24:56;;;;;;;6.63;1.60;;;32.70;72.10;;;;;;5094538;28;20523;-78
2022/08/01 11:27:23;;;;;;;6.85;1.83;;;31.60;74.20;;;;;;5094884;28;20048;-77
2022/08/01 11:30:10;;;;;;;7.85;1.50;;;31.60;76.20;;;;;;5093327;28;20480;-77
2022/08/01 11:32:48;;;;;;;5.07;1.50;;;32.00;74.50;;;;;;5093243;28;20060;-77
2022/08/01 11:35:14;;;;;;;9.07;1.80;;;31.60;76.10;;;;;;5094543;28;20044;-77
2022/08/01 11:37:40;;;;;;;5.70;1.60;;;31.70;76.20;;;;;;5092904;28;20502;-77
2022/08/01 11:40:22;;;;;;;5.40;1.50;;;32.70;75.20;;;;;;5094676;28;20043;-77
2022/08/01 11:42:49;;;;;;;7.13;1.60;;;34.40;72.50;;;;;;5113380;28;20047;-77
2022/08/01 11:45:15;;;;;;;6.13;1.40;;;35.50;72.70;;;;;;5114738;28;20039;-77
2022/08/01 11:47:49;;;;;;;6.55;1.70;;;36.70;71.90;;;;;;5114712;28;20036;-77
2022/08/01 11:50:35;;;;;;;7.07;1.70;;;37.90;71.90;;;;;;5115039;28;20134;-77
2022/08/01 11:53:03;;;;;;;7.80;1.60;;;38.40;68.70;;;;;;5114797;28;20050;-77
2022/08/01 11:55:29;;;;;;;6.07;1.70;;;39.00;69.80;;;;;;5114660;28;20046;-77
2022/08/01 11:58:03;;;;;;;5.10;1.48;;;39.30;68.90;;;;;;5114831;28;20043;-77
2022/08/01 12:00:30;;;;;;;7.85;1.80;;;40.00;67.70;;;;;;5114362;28;20047;-77
2022/08/01 12:03:06;;;;;;;4.82;1.35;;;40.70;68.10;;;;;;5114452;28;20047;-77
2022/08/01 12:05:36;;;;;;;4.63;1.58;;;40.20;66.70;;;;;;5114281;28;20111;-77
2022/08/01 12:08:03;;;;;;;4.68;1.50;;;40.10;65.60;;;;;;5112238;28;20036;-77
2022/08/01 12:10:37;;;;;;;4.97;1.45;;;40.80;65.70;;;;;;5113561;28;20051;-77
2022/08/01 12:13:06;;;;;;;5.50;1.60;;;41.10;63.80;;;;;;5113871;28;20392;-77
2022/08/01 12:15:38;;;;;;;5.35;1.50;;;41.90;63.50;;;;;;5093808;28;20055;-77
2022/08/01 12:18:06;;;;;;;7.25;1.75;;;42.10;62.80;;;;;;5126703;27;20408;-77
2022/08/01 12:20:35;;;;;;;5.50;1.40;;;42.30;62.30;;;;;;5093927;28;20476;-76
2022/08/01 12:23:02;;;;;;;6.38;1.40;;;41.90;61.40;;;;;;5092568;28;20618;-77
2022/08/01 12:25:29;;;;;;;6.28;1.60;;;42.10;61.60;;;;;;5094010;28;20196;-77
2022/08/01 12:27:58;;;;;;;5.05;1.73;;;41.70;61.20;;;;;;5092338;28;20044;-78
2022/08/01 12:30:24;;;;;;;3.60;1.60;;;40.30;60.90;;;;;;5091998;28;20172;-78
2022/08/01 12:32:52;;;;;;;6.10;1.40;;;38.30;60.70;;;;;;5092386;28;20044;-78
2022/08/01 12:35:23;;;;;;;7.70;1.67;;;36.80;61.20;;;;;;5126520;27;20412;-77
2022/08/01 12:37:51;;;;;;;4.32;1.30;;;34.90;61.80;;;;;;5092496;28;20048;-77
2022/08/01 12:40:25;;;;;;;9.57;1.73;;;33.80;63.30;;;;;;5092744;28;20047;-77
2022/08/01 12:42:56;;;;;;;6.63;1.70;;;32.80;64.50;;;;;;5093039;28;20127;-77
2022/08/01 12:45:25;;;;;;;4.75;1.33;;;31.80;64.80;;;;;;5125867;27;20112;-77
2022/08/01 12:47:52;;;;;;;5.25;1.60;;;31.10;65.60;;;;;;5092072;28;20091;-77
2022/08/01 12:50:21;;;;;;;5.22;1.40;;;30.30;66.10;;;;;;5091678;28;20053;-77
2022/08/01 12:52:48;;;;;;;6.30;1.60;;;29.40;66.10;;;;;;5092035;28;20476;-76
2022/08/01 12:55:17;;;;;;;6.72;1.80;;;28.90;67.10;;;;;;5126009;27;20130;-76
2022/08/01 12:57:49;;;;;;;8.30;1.67;;;28.60;67.80;;;;;;5092984;28;20059;-77